sensor_id;sensor_type;location;lat;lon;timestamp;P1;durP1;ratioP1;P2;durP2;ratioP2
31537;SDS011;18147;51.952;6.146;2023-04-24T00:00:08;17.55;;;12.88;;
31537;SDS011;18147;51.952;6.146;2023-04-24T00:02:34;18.42;;;12.85;;
31537;SDS011;18147;51.952;6.146;2023-04-24T00:05:03;20.63;;;13.90;;
31537;SDS011;18147;51.952;6.146;2023-04-24T00:07:32;20.88;;;14.13;;
31537;SDS011;18147;51.952;6.146;2023-04-24T00:09:58;25.02;;;16.25;;
31537;SDS011;18147;51.952;6.146;2023-04-24T00:12:24;23.08;;;16.63;;
31537;SDS011;18147;51.952;6.146;2023-04-24T00:14:50;23.60;;;16.10;;
31537;SDS011;18147;51.952;6.146;2023-04-24T00:17:16;27.38;;;17.45;;
31537;SDS011;18147;51.952;6.146;2023-04-24T00:19:45;25.58;;;17.52;;
31537;SDS011;18147;51.952;6.146;2023-04-24T00:22:11;26.20;;;17.33;;
31537;SDS011;18147;51.952;6.146;2023-04-24T00:24:38;29.40;;;18.95;;
31537;SDS011;18147;51.952;6.146;2023-04-24T00:27:04;28.17;;;18.70;;
31537;SDS011;18147;51.952;6.146;2023-04-24T00:29:29;28.23;;;18.27;;
31537;SDS011;18147;51.952;6.146;2023-04-24T00:31:55;28.73;;;18.10;;
31537;SDS011;18147;51.952;6.146;2023-04-24T00:34:21;26.90;;;17.42;;
31537;SDS011;18147;51.952;6.146;2023-04-24T00:36:46;29.23;;;18.13;;
31537;SDS011;18147;51.952;6.146;2023-04-24T00:39:14;26.48;;;17.33;;
31537;SDS011;18147;51.952;6.146;2023-04-24T00:41:39;24.55;;;17.00;;
31537;SDS011;18147;51.952;6.146;2023-04-24T00:44:05;22.98;;;15.68;;
31537;SDS011;18147;51.952;6.146;2023-04-24T00:46:31;23.50;;;16.23;;
31537;SDS011;18147;51.952;6.146;2023-04-24T00:48:58;25.20;;;16.13;;
31537;SDS011;18147;51.952;6.146;2023-04-24T00:51:24;18.10;;;13.77;;
31537;SDS011;18147;51.952;6.146;2023-04-24T00:53:50;23.42;;;16.35;;
31537;SDS011;18147;51.952;6.146;2023-04-24T00:56:16;23.92;;;16.17;;
31537;SDS011;18147;51.952;6.146;2023-04-24T00:58:42;22.65;;;15.40;;
31537;SDS011;18147;51.952;6.146;2023-04-24T01:01:08;23.92;;;15.85;;
31537;SDS011;18147;51.952;6.146;2023-04-24T01:03:36;21.65;;;14.52;;
31537;SDS011;18147;51.952;6.146;2023-04-24T01:06:03;20.42;;;14.57;;
31537;SDS011;18147;51.952;6.146;2023-04-24T01:08:30;20.10;;;13.18;;
31537;SDS011;18147;51.952;6.146;2023-04-24T01:10:56;20.25;;;13.75;;
31537;SDS011;18147;51.952;6.146;2023-04-24T01:13:23;20.52;;;12.95;;
31537;SDS011;18147;51.952;6.146;2023-04-24T01:15:49;21.58;;;14.75;;
31537;SDS011;18147;51.952;6.146;2023-04-24T01:18:14;17.98;;;13.27;;
31537;SDS011;18147;51.952;6.146;2023-04-24T01:20:41;20.27;;;14.40;;
31537;SDS011;18147;51.952;6.146;2023-04-24T01:23:09;18.25;;;13.10;;
31537;SDS011;18147;51.952;6.146;2023-04-24T01:25:35;21.02;;;14.20;;
31537;SDS011;18147;51.952;6.146;2023-04-24T01:28:02;20.27;;;14.27;;
31537;SDS011;18147;51.952;6.146;2023-04-24T01:30:31;22.90;;;15.15;;
31537;SDS011;18147;51.952;6.146;2023-04-24T01:32:57;23.75;;;14.68;;
31537;SDS011;18147;51.952;6.146;2023-04-24T01:35:24;22.40;;;14.48;;
31537;SDS011;18147;51.952;6.146;2023-04-24T01:37:50;23.70;;;15.77;;
31537;SDS011;18147;51.952;6.146;2023-04-24T01:40:15;22.33;;;15.07;;
31537;SDS011;18147;51.952;6.146;2023-04-24T01:42:41;22.27;;;15.30;;
31537;SDS011;18147;51.952;6.146;2023-04-24T01:45:07;25.35;;;15.98;;
31537;SDS011;18147;51.952;6.146;2023-04-24T01:47:36;25.50;;;15.93;;
31537;SDS011;18147;51.952;6.146;2023-04-24T01:50:01;29.02;;;16.02;;
31537;SDS011;18147;51.952;6.146;2023-04-24T01:52:28;28.70;;;16.23;;
31537;SDS011;18147;51.952;6.146;2023-04-24T01:54:56;23.73;;;16.35;;
31537;SDS011;18147;51.952;6.146;2023-04-24T01:57:24;28.70;;;16.88;;
31537;SDS011;18147;51.952;6.146;2023-04-24T01:59:51;26.70;;;16.50;;
31537;SDS011;18147;51.952;6.146;2023-04-24T02:02:16;25.77;;;17.05;;
31537;SDS011;18147;51.952;6.146;2023-04-24T02:04:42;24.05;;;16.40;;
31537;SDS011;18147;51.952;6.146;2023-04-24T02:07:07;26.23;;;17.25;;
31537;SDS011;18147;51.952;6.146;2023-04-24T02:09:33;31.67;;;18.23;;
31537;SDS011;18147;51.952;6.146;2023-04-24T02:11:59;32.65;;;18.60;;
31537;SDS011;18147;51.952;6.146;2023-04-24T02:14:25;29.52;;;19.25;;
31537;SDS011;18147;51.952;6.146;2023-04-24T02:16:51;35.75;;;20.38;;
31537;SDS011;18147;51.952;6.146;2023-04-24T02:19:16;36.70;;;21.73;;
31537;SDS011;18147;51.952;6.146;2023-04-24T02:21:42;37.13;;;21.40;;
31537;SDS011;18147;51.952;6.146;2023-04-24T02:24:07;31.98;;;21.58;;
31537;SDS011;18147;51.952;6.146;2023-04-24T02:26:33;38.35;;;22.98;;
31537;SDS011;18147;51.952;6.146;2023-04-24T02:28:59;38.85;;;23.50;;
31537;SDS011;18147;51.952;6.146;2023-04-24T02:31:25;34.50;;;21.95;;
31537;SDS011;18147;51.952;6.146;2023-04-24T02:33:50;37.90;;;21.42;;
31537;SDS011;18147;51.952;6.146;2023-04-24T02:36:16;38.55;;;21.85;;
31537;SDS011;18147;51.952;6.146;2023-04-24T02:38:41;33.95;;;21.63;;
31537;SDS011;18147;51.952;6.146;2023-04-24T02:41:07;35.38;;;20.77;;
31537;SDS011;18147;51.952;6.146;2023-04-24T02:43:33;35.58;;;20.33;;
31537;SDS011;18147;51.952;6.146;2023-04-24T02:45:58;33.60;;;21.58;;
31537;SDS011;18147;51.952;6.146;2023-04-24T02:48:24;27.55;;;18.23;;
31537;SDS011;18147;51.952;6.146;2023-04-24T02:50:50;26.33;;;18.15;;
31537;SDS011;18147;51.952;6.146;2023-04-24T02:53:16;27.27;;;17.98;;
31537;SDS011;18147;51.952;6.146;2023-04-24T02:55:41;31.33;;;18.23;;
31537;SDS011;18147;51.952;6.146;2023-04-24T02:58:07;26.23;;;17.58;;
31537;SDS011;18147;51.952;6.146;2023-04-24T03:00:33;29.00;;;17.60;;
31537;SDS011;18147;51.952;6.146;2023-04-24T03:02:59;29.17;;;18.95;;
31537;SDS011;18147;51.952;6.146;2023-04-24T03:05:24;29.45;;;19.35;;
31537;SDS011;18147;51.952;6.146;2023-04-24T03:07:50;33.53;;;19.55;;
31537;SDS011;18147;51.952;6.146;2023-04-24T03:10:17;32.97;;;20.95;;
31537;SDS011;18147;51.952;6.146;2023-04-24T03:12:43;36.08;;;22.05;;
31537;SDS011;18147;51.952;6.146;2023-04-24T03:15:09;39.58;;;24.13;;
31537;SDS011;18147;51.952;6.146;2023-04-24T03:17:36;40.83;;;25.02;;
31537;SDS011;18147;51.952;6.146;2023-04-24T03:20:02;49.28;;;25.70;;
31537;SDS011;18147;51.952;6.146;2023-04-24T03:22:30;42.97;;;25.48;;
31537;SDS011;18147;51.952;6.146;2023-04-24T03:24:58;51.08;;;29.80;;
31537;SDS011;18147;51.952;6.146;2023-04-24T03:27:24;44.40;;;26.92;;
31537;SDS011;18147;51.952;6.146;2023-04-24T03:29:55;56.13;;;30.90;;
31537;SDS011;18147;51.952;6.146;2023-04-24T03:32:25;47.70;;;30.05;;
31537;SDS011;18147;51.952;6.146;2023-04-24T03:34:51;50.80;;;30.23;;
31537;SDS011;18147;51.952;6.146;2023-04-24T03:37:16;52.80;;;30.27;;
31537;SDS011;18147;51.952;6.146;2023-04-24T03:39:48;51.55;;;31.80;;
31537;SDS011;18147;51.952;6.146;2023-04-24T03:42:16;53.42;;;31.90;;
31537;SDS011;18147;51.952;6.146;2023-04-24T03:44:50;60.90;;;34.03;;
31537;SDS011;18147;51.952;6.146;2023-04-24T03:47:16;59.08;;;34.35;;
31537;SDS011;18147;51.952;6.146;2023-04-24T03:49:42;55.47;;;31.77;;
31537;SDS011;18147;51.952;6.146;2023-04-24T03:52:08;58.63;;;34.83;;
31537;SDS011;18147;51.952;6.146;2023-04-24T03:54:34;61.00;;;35.38;;
31537;SDS011;18147;51.952;6.146;2023-04-24T03:57:00;58.72;;;33.88;;
31537;SDS011;18147;51.952;6.146;2023-04-24T03:59:28;58.90;;;35.45;;
31537;SDS011;18147;51.952;6.146;2023-04-24T04:02:14;61.05;;;35.78;;
31537;SDS011;18147;51.952;6.146;2023-04-24T04:04:40;61.55;;;36.90;;
31537;SDS011;18147;51.952;6.146;2023-04-24T04:07:06;67.72;;;35.75;;
31537;SDS011;18147;51.952;6.146;2023-04-24T04:09:32;54.92;;;33.90;;
31537;SDS011;18147;51.952;6.146;2023-04-24T04:11:58;62.45;;;37.00;;
31537;SDS011;18147;51.952;6.146;2023-04-24T04:14:23;68.88;;;37.30;;
31537;SDS011;18147;51.952;6.146;2023-04-24T04:16:49;63.88;;;34.65;;
31537;SDS011;18147;51.952;6.146;2023-04-24T04:19:14;63.60;;;35.95;;
31537;SDS011;18147;51.952;6.146;2023-04-24T04:21:40;63.00;;;36.00;;
31537;SDS011;18147;51.952;6.146;2023-04-24T04:24:13;65.78;;;36.47;;
31537;SDS011;18147;51.952;6.146;2023-04-24T04:26:42;63.42;;;34.45;;
31537;SDS011;18147;51.952;6.146;2023-04-24T04:29:18;62.20;;;34.20;;
31537;SDS011;18147;51.952;6.146;2023-04-24T04:31:45;64.43;;;35.65;;
31537;SDS011;18147;51.952;6.146;2023-04-24T04:34:12;60.55;;;33.83;;
31537;SDS011;18147;51.952;6.146;2023-04-24T04:36:40;57.25;;;34.70;;
31537;SDS011;18147;51.952;6.146;2023-04-24T04:39:19;58.90;;;35.08;;
31537;SDS011;18147;51.952;6.146;2023-04-24T04:42:06;53.22;;;31.92;;
31537;SDS011;18147;51.952;6.146;2023-04-24T04:44:38;55.13;;;30.42;;
31537;SDS011;18147;51.952;6.146;2023-04-24T04:47:06;59.17;;;32.05;;
31537;SDS011;18147;51.952;6.146;2023-04-24T04:49:35;59.63;;;33.10;;
31537;SDS011;18147;51.952;6.146;2023-04-24T04:52:02;55.50;;;33.25;;
31537;SDS011;18147;51.952;6.146;2023-04-24T04:54:28;63.97;;;34.92;;
31537;SDS011;18147;51.952;6.146;2023-04-24T04:56:55;63.83;;;35.10;;
31537;SDS011;18147;51.952;6.146;2023-04-24T04:59:22;54.50;;;30.90;;
31537;SDS011;18147;51.952;6.146;2023-04-24T05:01:52;52.10;;;29.23;;
31537;SDS011;18147;51.952;6.146;2023-04-24T05:04:17;55.95;;;30.35;;
31537;SDS011;18147;51.952;6.146;2023-04-24T05:06:43;42.05;;;26.40;;
31537;SDS011;18147;51.952;6.146;2023-04-24T05:09:08;52.25;;;29.13;;
31537;SDS011;18147;51.952;6.146;2023-04-24T05:11:49;49.53;;;28.90;;
31537;SDS011;18147;51.952;6.146;2023-04-24T05:14:15;46.78;;;27.88;;
31537;SDS011;18147;51.952;6.146;2023-04-24T05:16:42;48.53;;;27.67;;
31537;SDS011;18147;51.952;6.146;2023-04-24T05:19:09;52.45;;;27.60;;
31537;SDS011;18147;51.952;6.146;2023-04-24T05:21:39;46.67;;;25.95;;
31537;SDS011;18147;51.952;6.146;2023-04-24T05:24:09;40.38;;;25.05;;
31537;SDS011;18147;51.952;6.146;2023-04-24T05:27:04;43.55;;;26.77;;
31537;SDS011;18147;51.952;6.146;2023-04-24T05:29:34;49.22;;;26.98;;
31537;SDS011;18147;51.952;6.146;2023-04-24T05:32:02;46.88;;;26.08;;
31537;SDS011;18147;51.952;6.146;2023-04-24T05:34:29;41.03;;;23.98;;
31537;SDS011;18147;51.952;6.146;2023-04-24T05:36:56;45.05;;;24.42;;
31537;SDS011;18147;51.952;6.146;2023-04-24T05:39:21;43.47;;;25.10;;
31537;SDS011;18147;51.952;6.146;2023-04-24T05:41:47;42.65;;;24.17;;
31537;SDS011;18147;51.952;6.146;2023-04-24T05:44:12;43.25;;;24.85;;
31537;SDS011;18147;51.952;6.146;2023-04-24T05:46:38;44.47;;;24.88;;
31537;SDS011;18147;51.952;6.146;2023-04-24T05:49:04;36.95;;;22.67;;
31537;SDS011;18147;51.952;6.146;2023-04-24T05:51:31;32.80;;;21.70;;
31537;SDS011;18147;51.952;6.146;2023-04-24T05:53:57;45.20;;;23.48;;
31537;SDS011;18147;51.952;6.146;2023-04-24T05:56:24;40.05;;;24.85;;
31537;SDS011;18147;51.952;6.146;2023-04-24T05:58:50;43.60;;;23.17;;
31537;SDS011;18147;51.952;6.146;2023-04-24T06:01:16;43.78;;;23.35;;
31537;SDS011;18147;51.952;6.146;2023-04-24T06:03:45;39.05;;;22.35;;
31537;SDS011;18147;51.952;6.146;2023-04-24T06:06:10;28.85;;;17.08;;
31537;SDS011;18147;51.952;6.146;2023-04-24T06:08:36;30.30;;;18.90;;
31537;SDS011;18147;51.952;6.146;2023-04-24T06:11:02;31.80;;;19.45;;
31537;SDS011;18147;51.952;6.146;2023-04-24T06:13:28;28.38;;;17.70;;
31537;SDS011;18147;51.952;6.146;2023-04-24T06:16:19;27.33;;;14.35;;
31537;SDS011;18147;51.952;6.146;2023-04-24T06:21:18;23.33;;;15.75;;
31537;SDS011;18147;51.952;6.146;2023-04-24T06:23:43;26.90;;;16.45;;
31537;SDS011;18147;51.952;6.146;2023-04-24T06:26:11;24.85;;;16.20;;
31537;SDS011;18147;51.952;6.146;2023-04-24T06:28:37;24.70;;;15.57;;
31537;SDS011;18147;51.952;6.146;2023-04-24T06:31:03;35.35;;;18.50;;
31537;SDS011;18147;51.952;6.146;2023-04-24T06:33:29;29.25;;;17.83;;
31537;SDS011;18147;51.952;6.146;2023-04-24T06:35:55;28.52;;;16.75;;
31537;SDS011;18147;51.952;6.146;2023-04-24T06:38:21;27.60;;;17.10;;
31537;SDS011;18147;51.952;6.146;2023-04-24T06:40:46;29.70;;;16.80;;
31537;SDS011;18147;51.952;6.146;2023-04-24T06:43:12;26.73;;;17.30;;
31537;SDS011;18147;51.952;6.146;2023-04-24T06:45:38;28.70;;;18.98;;
31537;SDS011;18147;51.952;6.146;2023-04-24T06:48:04;30.95;;;17.58;;
31537;SDS011;18147;51.952;6.146;2023-04-24T06:50:30;27.85;;;17.30;;
31537;SDS011;18147;51.952;6.146;2023-04-24T06:52:56;28.95;;;16.75;;
31537;SDS011;18147;51.952;6.146;2023-04-24T06:55:21;23.10;;;14.95;;
31537;SDS011;18147;51.952;6.146;2023-04-24T06:57:47;22.83;;;15.07;;
31537;SDS011;18147;51.952;6.146;2023-04-24T07:00:12;20.42;;;13.45;;
31537;SDS011;18147;51.952;6.146;2023-04-24T07:02:39;19.23;;;11.95;;
31537;SDS011;18147;51.952;6.146;2023-04-24T07:05:05;14.15;;;10.02;;
31537;SDS011;18147;51.952;6.146;2023-04-24T07:07:32;13.80;;;8.90;;
31537;SDS011;18147;51.952;6.146;2023-04-24T07:09:57;13.05;;;8.70;;
31537;SDS011;18147;51.952;6.146;2023-04-24T07:12:23;12.48;;;8.70;;
31537;SDS011;18147;51.952;6.146;2023-04-24T07:14:49;16.00;;;9.82;;
31537;SDS011;18147;51.952;6.146;2023-04-24T07:17:15;14.57;;;10.45;;
31537;SDS011;18147;51.952;6.146;2023-04-24T07:19:42;15.68;;;9.80;;
31537;SDS011;18147;51.952;6.146;2023-04-24T07:22:07;14.90;;;10.02;;
31537;SDS011;18147;51.952;6.146;2023-04-24T07:24:33;17.00;;;10.50;;
31537;SDS011;18147;51.952;6.146;2023-04-24T07:26:59;15.85;;;9.73;;
31537;SDS011;18147;51.952;6.146;2023-04-24T07:29:26;16.10;;;10.57;;
31537;SDS011;18147;51.952;6.146;2023-04-24T07:31:52;16.73;;;11.43;;
31537;SDS011;18147;51.952;6.146;2023-04-24T07:34:19;12.13;;;8.57;;
31537;SDS011;18147;51.952;6.146;2023-04-24T07:36:45;14.45;;;9.60;;
31537;SDS011;18147;51.952;6.146;2023-04-24T07:39:11;11.70;;;8.35;;
31537;SDS011;18147;51.952;6.146;2023-04-24T07:41:36;13.80;;;8.60;;
31537;SDS011;18147;51.952;6.146;2023-04-24T07:44:02;13.15;;;8.70;;
31537;SDS011;18147;51.952;6.146;2023-04-24T07:46:27;11.00;;;7.85;;
31537;SDS011;18147;51.952;6.146;2023-04-24T07:48:55;11.90;;;8.00;;
31537;SDS011;18147;51.952;6.146;2023-04-24T07:51:21;12.38;;;7.80;;
31537;SDS011;18147;51.952;6.146;2023-04-24T07:53:47;11.20;;;8.15;;
31537;SDS011;18147;51.952;6.146;2023-04-24T07:56:12;13.38;;;7.55;;
31537;SDS011;18147;51.952;6.146;2023-04-24T07:58:38;13.20;;;7.20;;
31537;SDS011;18147;51.952;6.146;2023-04-24T08:01:03;12.13;;;5.43;;
31537;SDS011;18147;51.952;6.146;2023-04-24T08:03:29;7.93;;;5.20;;
31537;SDS011;18147;51.952;6.146;2023-04-24T08:05:54;5.88;;;3.65;;
31537;SDS011;18147;51.952;6.146;2023-04-24T08:08:20;6.85;;;3.90;;
31537;SDS011;18147;51.952;6.146;2023-04-24T08:10:48;6.82;;;3.78;;
31537;SDS011;18147;51.952;6.146;2023-04-24T08:13:13;8.68;;;4.70;;
31537;SDS011;18147;51.952;6.146;2023-04-24T08:15:39;9.93;;;5.45;;
31537;SDS011;18147;51.952;6.146;2023-04-24T08:18:05;8.02;;;4.85;;
31537;SDS011;18147;51.952;6.146;2023-04-24T08:20:30;9.25;;;5.95;;
31537;SDS011;18147;51.952;6.146;2023-04-24T08:22:56;22.77;;;8.55;;
31537;SDS011;18147;51.952;6.146;2023-04-24T08:25:21;16.08;;;9.07;;
31537;SDS011;18147;51.952;6.146;2023-04-24T08:27:48;16.73;;;11.07;;
31537;SDS011;18147;51.952;6.146;2023-04-24T08:30:13;17.17;;;10.77;;
31537;SDS011;18147;51.952;6.146;2023-04-24T08:32:39;17.17;;;10.15;;
31537;SDS011;18147;51.952;6.146;2023-04-24T08:35:05;21.63;;;11.77;;
31537;SDS011;18147;51.952;6.146;2023-04-24T08:37:34;22.55;;;10.65;;
31537;SDS011;18147;51.952;6.146;2023-04-24T08:39:59;13.90;;;9.77;;
31537;SDS011;18147;51.952;6.146;2023-04-24T08:42:25;18.92;;;9.52;;
31537;SDS011;18147;51.952;6.146;2023-04-24T08:44:53;18.85;;;11.93;;
31537;SDS011;18147;51.952;6.146;2023-04-24T08:47:20;20.15;;;11.48;;
31537;SDS011;18147;51.952;6.146;2023-04-24T08:49:47;25.67;;;11.55;;
31537;SDS011;18147;51.952;6.146;2023-04-24T08:52:14;25.05;;;12.45;;
31537;SDS011;18147;51.952;6.146;2023-04-24T08:54:41;23.77;;;11.45;;
31537;SDS011;18147;51.952;6.146;2023-04-24T08:57:10;21.98;;;12.48;;
31537;SDS011;18147;51.952;6.146;2023-04-24T08:59:39;21.63;;;12.45;;
31537;SDS011;18147;51.952;6.146;2023-04-24T09:02:05;22.10;;;12.45;;
31537;SDS011;18147;51.952;6.146;2023-04-24T09:04:35;16.50;;;10.48;;
31537;SDS011;18147;51.952;6.146;2023-04-24T09:07:02;18.38;;;11.43;;
31537;SDS011;18147;51.952;6.146;2023-04-24T09:09:29;20.20;;;12.57;;
31537;SDS011;18147;51.952;6.146;2023-04-24T09:11:56;22.20;;;12.23;;
31537;SDS011;18147;51.952;6.146;2023-04-24T09:14:23;28.98;;;12.82;;
31537;SDS011;18147;51.952;6.146;2023-04-24T09:16:49;23.10;;;11.63;;
31537;SDS011;18147;51.952;6.146;2023-04-24T09:19:15;23.45;;;11.65;;
31537;SDS011;18147;51.952;6.146;2023-04-24T09:21:41;20.48;;;10.98;;
31537;SDS011;18147;51.952;6.146;2023-04-24T09:24:19;17.23;;;10.90;;
31537;SDS011;18147;51.952;6.146;2023-04-24T09:26:48;17.60;;;9.68;;
31537;SDS011;18147;51.952;6.146;2023-04-24T09:29:18;15.43;;;8.27;;
31537;SDS011;18147;51.952;6.146;2023-04-24T09:31:44;13.00;;;6.30;;
31537;SDS011;18147;51.952;6.146;2023-04-24T09:34:11;11.27;;;6.53;;
31537;SDS011;18147;51.952;6.146;2023-04-24T09:36:38;13.02;;;6.57;;
31537;SDS011;18147;51.952;6.146;2023-04-24T09:39:06;13.93;;;6.28;;
31537;SDS011;18147;51.952;6.146;2023-04-24T09:41:51;18.73;;;7.15;;
31537;SDS011;18147;51.952;6.146;2023-04-24T09:44:19;16.23;;;6.10;;
31537;SDS011;18147;51.952;6.146;2023-04-24T09:46:52;15.05;;;5.78;;
31537;SDS011;18147;51.952;6.146;2023-04-24T09:49:26;17.83;;;6.57;;
31537;SDS011;18147;51.952;6.146;2023-04-24T09:52:02;21.60;;;6.60;;
31537;SDS011;18147;51.952;6.146;2023-04-24T09:54:37;14.00;;;5.95;;
31537;SDS011;18147;51.952;6.146;2023-04-24T09:57:03;20.33;;;5.80;;
31537;SDS011;18147;51.952;6.146;2023-04-24T09:59:30;22.05;;;5.25;;
31537;SDS011;18147;51.952;6.146;2023-04-24T10:01:56;16.13;;;4.88;;
31537;SDS011;18147;51.952;6.146;2023-04-24T10:04:24;16.65;;;4.95;;
31537;SDS011;18147;51.952;6.146;2023-04-24T10:06:52;14.85;;;5.70;;
31537;SDS011;18147;51.952;6.146;2023-04-24T10:09:20;19.05;;;6.00;;
31537;SDS011;18147;51.952;6.146;2023-04-24T10:11:47;10.20;;;4.10;;
31537;SDS011;18147;51.952;6.146;2023-04-24T10:14:19;15.50;;;4.30;;
31537;SDS011;18147;51.952;6.146;2023-04-24T10:16:46;18.85;;;5.03;;
31537;SDS011;18147;51.952;6.146;2023-04-24T10:19:16;14.60;;;4.50;;
31537;SDS011;18147;51.952;6.146;2023-04-24T10:21:44;16.13;;;5.15;;
31537;SDS011;18147;51.952;6.146;2023-04-24T10:24:16;17.92;;;4.82;;
31537;SDS011;18147;51.952;6.146;2023-04-24T10:26:43;20.83;;;5.15;;
31537;SDS011;18147;51.952;6.146;2023-04-24T10:29:14;14.27;;;4.53;;
31537;SDS011;18147;51.952;6.146;2023-04-24T10:31:43;13.10;;;4.18;;
31537;SDS011;18147;51.952;6.146;2023-04-24T10:34:13;19.35;;;4.60;;
31537;SDS011;18147;51.952;6.146;2023-04-24T10:36:48;6.90;;;3.65;;
31537;SDS011;18147;51.952;6.146;2023-04-24T10:39:16;10.18;;;4.13;;
31537;SDS011;18147;51.952;6.146;2023-04-24T10:41:43;16.58;;;5.00;;
31537;SDS011;18147;51.952;6.146;2023-04-24T10:44:13;14.60;;;4.63;;
31537;SDS011;18147;51.952;6.146;2023-04-24T10:46:44;18.13;;;4.00;;
31537;SDS011;18147;51.952;6.146;2023-04-24T10:49:11;13.27;;;6.07;;
31537;SDS011;18147;51.952;6.146;2023-04-24T10:51:52;14.27;;;4.28;;
31537;SDS011;18147;51.952;6.146;2023-04-24T10:54:35;11.40;;;4.03;;
31537;SDS011;18147;51.952;6.146;2023-04-24T11:02:38;11.35;;;3.80;;
31537;SDS011;18147;51.952;6.146;2023-04-24T11:05:05;6.85;;;3.50;;
31537;SDS011;18147;51.952;6.146;2023-04-24T11:10:40;13.90;;;3.13;;
31537;SDS011;18147;51.952;6.146;2023-04-24T11:13:10;12.88;;;3.65;;
31537;SDS011;18147;51.952;6.146;2023-04-24T11:15:41;14.43;;;3.15;;
31537;SDS011;18147;51.952;6.146;2023-04-24T11:18:11;13.80;;;3.67;;
31537;SDS011;18147;51.952;6.146;2023-04-24T11:20:41;11.15;;;3.47;;
31537;SDS011;18147;51.952;6.146;2023-04-24T11:23:08;9.02;;;3.25;;
31537;SDS011;18147;51.952;6.146;2023-04-24T11:25:34;10.50;;;3.17;;
31537;SDS011;18147;51.952;6.146;2023-04-24T11:28:04;8.43;;;2.97;;
31537;SDS011;18147;51.952;6.146;2023-04-24T11:30:32;9.32;;;2.28;;
31537;SDS011;18147;51.952;6.146;2023-04-24T11:33:01;3.78;;;1.80;;
31537;SDS011;18147;51.952;6.146;2023-04-24T11:35:28;9.32;;;1.88;;
31537;SDS011;18147;51.952;6.146;2023-04-24T11:37:55;9.68;;;2.08;;
31537;SDS011;18147;51.952;6.146;2023-04-24T11:40:21;6.05;;;2.20;;
31537;SDS011;18147;51.952;6.146;2023-04-24T11:42:48;6.93;;;2.55;;
31537;SDS011;18147;51.952;6.146;2023-04-24T11:45:16;4.88;;;1.77;;
31537;SDS011;18147;51.952;6.146;2023-04-24T11:47:53;7.75;;;2.10;;
31537;SDS011;18147;51.952;6.146;2023-04-24T11:50:20;8.80;;;2.58;;
31537;SDS011;18147;51.952;6.146;2023-04-24T11:52:47;7.45;;;1.90;;
31537;SDS011;18147;51.952;6.146;2023-04-24T11:57:43;4.72;;;1.90;;
31537;SDS011;18147;51.952;6.146;2023-04-24T12:00:15;5.50;;;1.95;;
31537;SDS011;18147;51.952;6.146;2023-04-24T12:02:42;4.90;;;1.70;;
31537;SDS011;18147;51.952;6.146;2023-04-24T12:05:08;4.97;;;1.60;;
31537;SDS011;18147;51.952;6.146;2023-04-24T12:07:40;5.45;;;1.40;;
31537;SDS011;18147;51.952;6.146;2023-04-24T12:10:10;5.47;;;1.50;;
31537;SDS011;18147;51.952;6.146;2023-04-24T12:12:36;6.85;;;1.50;;
31537;SDS011;18147;51.952;6.146;2023-04-24T12:15:01;6.57;;;1.88;;
31537;SDS011;18147;51.952;6.146;2023-04-24T12:17:32;3.22;;;1.33;;
31537;SDS011;18147;51.952;6.146;2023-04-24T12:20:00;4.28;;;1.40;;
31537;SDS011;18147;51.952;6.146;2023-04-24T12:22:27;7.25;;;1.55;;
31537;SDS011;18147;51.952;6.146;2023-04-24T12:27:31;8.07;;;1.70;;
31537;SDS011;18147;51.952;6.146;2023-04-24T12:30:02;6.53;;;1.80;;
31537;SDS011;18147;51.952;6.146;2023-04-24T12:32:30;5.63;;;1.80;;
31537;SDS011;18147;51.952;6.146;2023-04-24T12:34:56;1.70;;;1.13;;
31537;SDS011;18147;51.952;6.146;2023-04-24T12:37:23;3.80;;;1.65;;
31537;SDS011;18147;51.952;6.146;2023-04-24T12:40:02;5.35;;;1.30;;
31537;SDS011;18147;51.952;6.146;2023-04-24T12:42:32;8.57;;;2.13;;
31537;SDS011;18147;51.952;6.146;2023-04-24T12:45:01;6.13;;;1.70;;
31537;SDS011;18147;51.952;6.146;2023-04-24T12:47:30;3.25;;;1.58;;
31537;SDS011;18147;51.952;6.146;2023-04-24T12:49:55;4.40;;;1.50;;
31537;SDS011;18147;51.952;6.146;2023-04-24T12:52:22;2.25;;;1.20;;
31537;SDS011;18147;51.952;6.146;2023-04-24T12:54:49;5.18;;;1.35;;
31537;SDS011;18147;51.952;6.146;2023-04-24T12:57:17;3.80;;;1.27;;
31537;SDS011;18147;51.952;6.146;2023-04-24T12:59:43;8.45;;;1.25;;
31537;SDS011;18147;51.952;6.146;2023-04-24T13:02:09;6.10;;;1.48;;
31537;SDS011;18147;51.952;6.146;2023-04-24T13:04:35;6.32;;;2.15;;
31537;SDS011;18147;51.952;6.146;2023-04-24T13:07:01;5.32;;;1.55;;
31537;SDS011;18147;51.952;6.146;2023-04-24T13:09:27;5.85;;;1.65;;
31537;SDS011;18147;51.952;6.146;2023-04-24T13:11:52;8.40;;;1.70;;
31537;SDS011;18147;51.952;6.146;2023-04-24T13:14:18;3.22;;;1.25;;
31537;SDS011;18147;51.952;6.146;2023-04-24T13:16:43;6.13;;;1.60;;
31537;SDS011;18147;51.952;6.146;2023-04-24T13:19:09;3.85;;;1.42;;
31537;SDS011;18147;51.952;6.146;2023-04-24T13:21:35;2.00;;;1.23;;
31537;SDS011;18147;51.952;6.146;2023-04-24T13:24:01;4.20;;;1.20;;
31537;SDS011;18147;51.952;6.146;2023-04-24T13:26:29;6.53;;;1.60;;
31537;SDS011;18147;51.952;6.146;2023-04-24T13:28:54;2.42;;;1.52;;
31537;SDS011;18147;51.952;6.146;2023-04-24T13:31:20;6.82;;;1.42;;
31537;SDS011;18147;51.952;6.146;2023-04-24T13:33:45;4.47;;;1.60;;
31537;SDS011;18147;51.952;6.146;2023-04-24T13:36:11;3.90;;;1.60;;
31537;SDS011;18147;51.952;6.146;2023-04-24T13:38:36;6.00;;;1.42;;
31537;SDS011;18147;51.952;6.146;2023-04-24T13:41:03;5.68;;;1.60;;
31537;SDS011;18147;51.952;6.146;2023-04-24T13:43:28;4.53;;;1.55;;
31537;SDS011;18147;51.952;6.146;2023-04-24T13:45:55;3.55;;;1.60;;
31537;SDS011;18147;51.952;6.146;2023-04-24T13:48:20;7.10;;;1.80;;
31537;SDS011;18147;51.952;6.146;2023-04-24T13:51:03;6.32;;;1.70;;
31537;SDS011;18147;51.952;6.146;2023-04-24T13:53:28;7.63;;;2.20;;
31537;SDS011;18147;51.952;6.146;2023-04-24T13:55:54;12.05;;;1.95;;
31537;SDS011;18147;51.952;6.146;2023-04-24T13:58:19;7.68;;;2.33;;
31537;SDS011;18147;51.952;6.146;2023-04-24T14:00:45;8.07;;;2.28;;
31537;SDS011;18147;51.952;6.146;2023-04-24T14:03:11;7.75;;;1.98;;
31537;SDS011;18147;51.952;6.146;2023-04-24T14:05:37;11.05;;;3.03;;
31537;SDS011;18147;51.952;6.146;2023-04-24T14:08:03;9.35;;;2.60;;
31537;SDS011;18147;51.952;6.146;2023-04-24T14:10:29;12.10;;;3.17;;
31537;SDS011;18147;51.952;6.146;2023-04-24T14:12:54;7.30;;;2.33;;
31537;SDS011;18147;51.952;6.146;2023-04-24T14:15:20;12.68;;;2.78;;
31537;SDS011;18147;51.952;6.146;2023-04-24T14:17:46;10.95;;;3.22;;
31537;SDS011;18147;51.952;6.146;2023-04-24T14:20:12;8.95;;;2.70;;
31537;SDS011;18147;51.952;6.146;2023-04-24T14:22:38;14.90;;;3.13;;
31537;SDS011;18147;51.952;6.146;2023-04-24T14:25:04;12.40;;;2.97;;
31537;SDS011;18147;51.952;6.146;2023-04-24T14:27:31;12.25;;;2.95;;
31537;SDS011;18147;51.952;6.146;2023-04-24T14:29:57;11.52;;;2.95;;
31537;SDS011;18147;51.952;6.146;2023-04-24T14:32:23;8.70;;;3.03;;
31537;SDS011;18147;51.952;6.146;2023-04-24T14:34:48;9.20;;;2.75;;
31537;SDS011;18147;51.952;6.146;2023-04-24T14:37:14;7.97;;;2.50;;
31537;SDS011;18147;51.952;6.146;2023-04-24T14:39:40;11.68;;;3.17;;
31537;SDS011;18147;51.952;6.146;2023-04-24T14:42:06;11.18;;;2.75;;
31537;SDS011;18147;51.952;6.146;2023-04-24T14:44:31;10.82;;;2.50;;
31537;SDS011;18147;51.952;6.146;2023-04-24T14:46:58;9.50;;;2.90;;